sensor_id;sensor_type;location;lat;lon;timestamp;temperature;humidity
20481;DHT22;10399;50.754;3.366;2023-03-31T00:00:51;12.80;99.90
20481;DHT22;10399;50.754;3.366;2023-03-31T00:03:18;12.80;99.90
20481;DHT22;10399;50.754;3.366;2023-03-31T00:05:57;12.90;99.90
20481;DHT22;10399;50.754;3.366;2023-03-31T00:08:26;12.90;99.90
20481;DHT22;10399;50.754;3.366;2023-03-31T00:10:58;12.80;99.90
20481;DHT22;10399;50.754;3.366;2023-03-31T00:13:27;12.60;99.90
20481;DHT22;10399;50.754;3.366;2023-03-31T00:15:59;12.70;99.90
20481;DHT22;10399;50.754;3.366;2023-03-31T00:18:27;12.80;99.90
20481;DHT22;10399;50.754;3.366;2023-03-31T00:21:14;12.80;99.90
20481;DHT22;10399;50.754;3.366;2023-03-31T00:24:05;12.70;99.90
20481;DHT22;10399;50.754;3.366;2023-03-31T00:26:33;12.80;99.90
20481;DHT22;10399;50.754;3.366;2023-03-31T00:29:01;12.70;99.90
20481;DHT22;10399;50.754;3.366;2023-03-31T00:31:28;12.60;99.90
20481;DHT22;10399;50.754;3.366;2023-03-31T00:33:55;12.70;99.90
20481;DHT22;10399;50.754;3.366;2023-03-31T00:36:22;12.60;99.90
20481;DHT22;10399;50.754;3.366;2023-03-31T00:38:54;12.60;99.90
20481;DHT22;10399;50.754;3.366;2023-03-31T00:41:22;12.50;99.90
20481;DHT22;10399;50.754;3.366;2023-03-31T00:47:03;12.50;99.90
20481;DHT22;10399;50.754;3.366;2023-03-31T00:49:44;12.50;99.90
20481;DHT22;10399;50.754;3.366;2023-03-31T00:52:14;12.50;99.90
20481;DHT22;10399;50.754;3.366;2023-03-31T00:54:46;12.40;99.90
20481;DHT22;10399;50.754;3.366;2023-03-31T00:57:15;12.40;99.90
20481;DHT22;10399;50.754;3.366;2023-03-31T00:59:48;12.40;99.90
20481;DHT22;10399;50.754;3.366;2023-03-31T01:02:17;12.50;99.90
20481;DHT22;10399;50.754;3.366;2023-03-31T01:04:49;12.60;99.90
20481;DHT22;10399;50.754;3.366;2023-03-31T01:07:49;12.50;99.90
20481;DHT22;10399;50.754;3.366;2023-03-31T01:10:15;12.50;99.90
20481;DHT22;10399;50.754;3.366;2023-03-31T01:12:45;12.50;99.90
20481;DHT22;10399;50.754;3.366;2023-03-31T01:15:13;12.50;99.90
20481;DHT22;10399;50.754;3.366;2023-03-31T01:17:42;12.40;99.90
20481;DHT22;10399;50.754;3.366;2023-03-31T01:20:23;12.40;99.90
20481;DHT22;10399;50.754;3.366;2023-03-31T01:23:19;12.40;99.90
20481;DHT22;10399;50.754;3.366;2023-03-31T01:43:08;12.30;99.90
20481;DHT22;10399;50.754;3.366;2023-03-31T01:46:00;12.20;99.90
20481;DHT22;10399;50.754;3.366;2023-03-31T01:51:21;12.20;99.90
20481;DHT22;10399;50.754;3.366;2023-03-31T01:56:40;12.20;99.90
20481;DHT22;10399;50.754;3.366;2023-03-31T02:04:21;12.30;99.90
20481;DHT22;10399;50.754;3.366;2023-03-31T02:06:59;12.20;99.90
20481;DHT22;10399;50.754;3.366;2023-03-31T02:09:42;12.30;99.90
20481;DHT22;10399;50.754;3.366;2023-03-31T02:12:11;12.30;99.90
20481;DHT22;10399;50.754;3.366;2023-03-31T02:14:42;12.30;99.90
20481;DHT22;10399;50.754;3.366;2023-03-31T02:17:16;12.40;99.90
20481;DHT22;10399;50.754;3.366;2023-03-31T02:19:50;12.40;99.90
20481;DHT22;10399;50.754;3.366;2023-03-31T02:22:20;12.30;99.90
20481;DHT22;10399;50.754;3.366;2023-03-31T02:24:52;12.30;99.90
20481;DHT22;10399;50.754;3.366;2023-03-31T02:27:48;12.20;99.90
20481;DHT22;10399;50.754;3.366;2023-03-31T02:30:17;12.20;99.90
20481;DHT22;10399;50.754;3.366;2023-03-31T02:32:44;12.20;99.90
20481;DHT22;10399;50.754;3.366;2023-03-31T02:35:16;12.00;99.90
20481;DHT22;10399;50.754;3.366;2023-03-31T02:37:44;12.10;99.90
20481;DHT22;10399;50.754;3.366;2023-03-31T02:40:22;12.00;99.90
20481;DHT22;10399;50.754;3.366;2023-03-31T02:42:54;11.90;99.90
20481;DHT22;10399;50.754;3.366;2023-03-31T02:45:52;11.90;99.90
20481;DHT22;10399;50.754;3.366;2023-03-31T02:48:28;11.70;99.90
20481;DHT22;10399;50.754;3.366;2023-03-31T03:02:25;11.50;99.90
20481;DHT22;10399;50.754;3.366;2023-03-31T03:13:08;11.40;99.90
20481;DHT22;10399;50.754;3.366;2023-03-31T03:15:52;11.50;99.90
20481;DHT22;10399;50.754;3.366;2023-03-31T03:18:22;11.50;99.90
20481;DHT22;10399;50.754;3.366;2023-03-31T03:20:49;11.50;99.90
20481;DHT22;10399;50.754;3.366;2023-03-31T03:23:16;11.50;99.90
20481;DHT22;10399;50.754;3.366;2023-03-31T03:25:43;11.50;99.90
20481;DHT22;10399;50.754;3.366;2023-03-31T03:28:11;11.40;99.90
20481;DHT22;10399;50.754;3.366;2023-03-31T03:30:38;11.30;99.90
20481;DHT22;10399;50.754;3.366;2023-03-31T03:33:05;11.30;99.90
20481;DHT22;10399;50.754;3.366;2023-03-31T03:35:33;11.20;99.90
20481;DHT22;10399;50.754;3.366;2023-03-31T03:38:00;11.10;99.90
20481;DHT22;10399;50.754;3.366;2023-03-31T03:40:27;11.10;99.90
20481;DHT22;10399;50.754;3.366;2023-03-31T03:42:54;11.20;99.90
20481;DHT22;10399;50.754;3.366;2023-03-31T03:45:22;11.30;99.90
20481;DHT22;10399;50.754;3.366;2023-03-31T03:47:49;11.40;99.90
20481;DHT22;10399;50.754;3.366;2023-03-31T03:50:16;11.30;99.90
20481;DHT22;10399;50.754;3.366;2023-03-31T03:52:43;11.20;99.90
20481;DHT22;10399;50.754;3.366;2023-03-31T03:55:10;11.30;99.90
20481;DHT22;10399;50.754;3.366;2023-03-31T03:57:38;11.20;99.90
20481;DHT22;10399;50.754;3.366;2023-03-31T04:00:05;11.30;99.90
20481;DHT22;10399;50.754;3.366;2023-03-31T04:02:37;11.20;99.90
20481;DHT22;10399;50.754;3.366;2023-03-31T04:05:04;11.10;99.90
20481;DHT22;10399;50.754;3.366;2023-03-31T04:07:31;11.00;99.90
20481;DHT22;10399;50.754;3.366;2023-03-31T04:09:58;11.00;99.90
20481;DHT22;10399;50.754;3.366;2023-03-31T04:12:25;11.20;99.90
20481;DHT22;10399;50.754;3.366;2023-03-31T04:14:52;11.20;99.90
20481;DHT22;10399;50.754;3.366;2023-03-31T04:17:19;11.30;99.90
20481;DHT22;10399;50.754;3.366;2023-03-31T04:20:08;11.20;99.90
20481;DHT22;10399;50.754;3.366;2023-03-31T04:22:37;11.20;99.90
20481;DHT22;10399;50.754;3.366;2023-03-31T04:25:09;11.20;99.90
20481;DHT22;10399;50.754;3.366;2023-03-31T04:27:45;11.30;99.90
20481;DHT22;10399;50.754;3.366;2023-03-31T04:30:13;11.40;99.90
20481;DHT22;10399;50.754;3.366;2023-03-31T04:32:56;11.50;99.90
20481;DHT22;10399;50.754;3.366;2023-03-31T04:35:25;11.40;99.90
20481;DHT22;10399;50.754;3.366;2023-03-31T04:37:53;11.50;99.90
20481;DHT22;10399;50.754;3.366;2023-03-31T04:40:24;11.50;99.90
20481;DHT22;10399;50.754;3.366;2023-03-31T04:42:51;11.50;99.90
20481;DHT22;10399;50.754;3.366;2023-03-31T04:45:18;11.60;99.90
20481;DHT22;10399;50.754;3.366;2023-03-31T04:47:45;11.60;99.90
20481;DHT22;10399;50.754;3.366;2023-03-31T04:50:12;11.60;99.90
20481;DHT22;10399;50.754;3.366;2023-03-31T04:52:43;11.70;99.90
20481;DHT22;10399;50.754;3.366;2023-03-31T04:55:10;11.70;99.90
20481;DHT22;10399;50.754;3.366;2023-03-31T04:57:36;11.70;99.90
20481;DHT22;10399;50.754;3.366;2023-03-31T05:00:04;11.70;99.90
20481;DHT22;10399;50.754;3.366;2023-03-31T05:02:34;11.80;99.90
20481;DHT22;10399;50.754;3.366;2023-03-31T05:05:02;11.80;99.90
20481;DHT22;10399;50.754;3.366;2023-03-31T05:07:30;11.80;99.90
20481;DHT22;10399;50.754;3.366;2023-03-31T05:09:58;11.80;99.90
20481;DHT22;10399;50.754;3.366;2023-03-31T05:12:25;12.00;99.90
20481;DHT22;10399;50.754;3.366;2023-03-31T05:14:53;12.00;99.90
20481;DHT22;10399;50.754;3.366;2023-03-31T05:17:19;12.00;99.90
20481;DHT22;10399;50.754;3.366;2023-03-31T05:19:48;12.20;99.90
20481;DHT22;10399;50.754;3.366;2023-03-31T05:22:15;12.10;99.90
20481;DHT22;10399;50.754;3.366;2023-03-31T05:24:46;12.20;99.90
20481;DHT22;10399;50.754;3.366;2023-03-31T05:27:14;12.30;99.90
20481;DHT22;10399;50.754;3.366;2023-03-31T05:29:42;12.40;99.90
20481;DHT22;10399;50.754;3.366;2023-03-31T05:32:09;12.50;99.90
20481;DHT22;10399;50.754;3.366;2023-03-31T05:34:36;12.40;99.90
20481;DHT22;10399;50.754;3.366;2023-03-31T05:37:03;12.50;99.90
20481;DHT22;10399;50.754;3.366;2023-03-31T05:39:30;12.50;99.90
20481;DHT22;10399;50.754;3.366;2023-03-31T05:42:01;12.40;99.90
20481;DHT22;10399;50.754;3.366;2023-03-31T05:44:29;12.40;99.90
20481;DHT22;10399;50.754;3.366;2023-03-31T05:46:56;12.40;99.90
20481;DHT22;10399;50.754;3.366;2023-03-31T05:49:23;12.40;99.90
20481;DHT22;10399;50.754;3.366;2023-03-31T05:51:50;12.50;99.90
20481;DHT22;10399;50.754;3.366;2023-03-31T05:54:17;12.50;99.90
20481;DHT22;10399;50.754;3.366;2023-03-31T05:56:44;12.50;99.90
20481;DHT22;10399;50.754;3.366;2023-03-31T05:59:11;12.60;99.90
20481;DHT22;10399;50.754;3.366;2023-03-31T06:01:38;12.50;99.90
20481;DHT22;10399;50.754;3.366;2023-03-31T06:04:05;12.50;99.90
20481;DHT22;10399;50.754;3.366;2023-03-31T06:06:32;12.50;99.90
20481;DHT22;10399;50.754;3.366;2023-03-31T06:09:04;12.60;99.90
20481;DHT22;10399;50.754;3.366;2023-03-31T06:11:33;12.60;99.90
20481;DHT22;10399;50.754;3.366;2023-03-31T06:14:00;12.70;99.90
20481;DHT22;10399;50.754;3.366;2023-03-31T06:16:27;12.70;99.90
20481;DHT22;10399;50.754;3.366;2023-03-31T06:18:55;12.60;99.90
20481;DHT22;10399;50.754;3.366;2023-03-31T06:21:22;12.60;99.90
20481;DHT22;10399;50.754;3.366;2023-03-31T06:23:49;12.60;99.90
20481;DHT22;10399;50.754;3.366;2023-03-31T06:26:21;12.60;99.90
20481;DHT22;10399;50.754;3.366;2023-03-31T06:28:48;12.70;99.90
20481;DHT22;10399;50.754;3.366;2023-03-31T06:31:18;12.70;99.90
20481;DHT22;10399;50.754;3.366;2023-03-31T06:33:46;12.70;99.90
20481;DHT22;10399;50.754;3.366;2023-03-31T06:36:16;12.70;99.90
20481;DHT22;10399;50.754;3.366;2023-03-31T06:38:43;12.70;99.90
20481;DHT22;10399;50.754;3.366;2023-03-31T06:41:12;12.60;99.90
20481;DHT22;10399;50.754;3.366;2023-03-31T06:43:40;12.50;99.90
20481;DHT22;10399;50.754;3.366;2023-03-31T06:46:07;12.60;99.90
20481;DHT22;10399;50.754;3.366;2023-03-31T06:48:35;12.60;99.90
20481;DHT22;10399;50.754;3.366;2023-03-31T06:51:04;12.60;99.90
20481;DHT22;10399;50.754;3.366;2023-03-31T06:53:32;12.70;99.90
20481;DHT22;10399;50.754;3.366;2023-03-31T06:55:59;12.70;99.90
20481;DHT22;10399;50.754;3.366;2023-03-31T06:58:26;12.70;99.90
20481;DHT22;10399;50.754;3.366;2023-03-31T07:00:57;12.80;99.90
20481;DHT22;10399;50.754;3.366;2023-03-31T07:03:24;12.80;99.90
20481;DHT22;10399;50.754;3.366;2023-03-31T07:05:53;12.80;99.90
20481;DHT22;10399;50.754;3.366;2023-03-31T07:08:21;12.80;99.90
20481;DHT22;10399;50.754;3.366;2023-03-31T07:10:53;12.70;99.90
20481;DHT22;10399;50.754;3.366;2023-03-31T07:13:21;12.70;99.90
20481;DHT22;10399;50.754;3.366;2023-03-31T07:15:49;12.70;99.90
20481;DHT22;10399;50.754;3.366;2023-03-31T07:18:17;12.70;99.90
20481;DHT22;10399;50.754;3.366;2023-03-31T07:20:47;12.80;99.90
20481;DHT22;10399;50.754;3.366;2023-03-31T07:23:16;12.90;99.90
20481;DHT22;10399;50.754;3.366;2023-03-31T07:25:43;12.90;99.90
20481;DHT22;10399;50.754;3.366;2023-03-31T07:28:11;12.80;99.90
20481;DHT22;10399;50.754;3.366;2023-03-31T07:30:39;12.80;99.90
20481;DHT22;10399;50.754;3.366;2023-03-31T07:33:07;12.80;99.90
20481;DHT22;10399;50.754;3.366;2023-03-31T07:35:39;12.80;99.90
20481;DHT22;10399;50.754;3.366;2023-03-31T07:38:08;12.80;99.90
20481;DHT22;10399;50.754;3.366;2023-03-31T07:40:36;12.80;99.90
20481;DHT22;10399;50.754;3.366;2023-03-31T07:43:03;12.70;99.90
20481;DHT22;10399;50.754;3.366;2023-03-31T07:45:31;12.80;99.90
20481;DHT22;10399;50.754;3.366;2023-03-31T07:47:58;12.80;99.90
20481;DHT22;10399;50.754;3.366;2023-03-31T07:50:25;12.70;99.90
20481;DHT22;10399;50.754;3.366;2023-03-31T07:52:52;12.70;99.90
20481;DHT22;10399;50.754;3.366;2023-03-31T07:55:20;12.70;99.90
20481;DHT22;10399;50.754;3.366;2023-03-31T07:57:49;12.70;99.90
20481;DHT22;10399;50.754;3.366;2023-03-31T08:00:17;12.80;99.90
20481;DHT22;10399;50.754;3.366;2023-03-31T08:02:45;12.70;99.90
20481;DHT22;10399;50.754;3.366;2023-03-31T08:05:14;12.80;99.90
20481;DHT22;10399;50.754;3.366;2023-03-31T08:07:44;12.80;99.90
20481;DHT22;10399;50.754;3.366;2023-03-31T08:10:19;12.70;99.90
20481;DHT22;10399;50.754;3.366;2023-03-31T08:12:46;12.80;99.90
20481;DHT22;10399;50.754;3.366;2023-03-31T08:15:17;12.80;99.90
20481;DHT22;10399;50.754;3.366;2023-03-31T08:17:45;12.90;99.90
20481;DHT22;10399;50.754;3.366;2023-03-31T08:20:12;12.90;99.90
20481;DHT22;10399;50.754;3.366;2023-03-31T08:22:39;12.90;99.90
20481;DHT22;10399;50.754;3.366;2023-03-31T08:25:07;13.00;99.90
20481;DHT22;10399;50.754;3.366;2023-03-31T08:27:37;13.10;99.90
20481;DHT22;10399;50.754;3.366;2023-03-31T08:30:09;13.00;99.90
20481;DHT22;10399;50.754;3.366;2023-03-31T08:32:37;12.90;99.90
20481;DHT22;10399;50.754;3.366;2023-03-31T08:35:04;13.00;99.90
20481;DHT22;10399;50.754;3.366;2023-03-31T08:37:31;13.10;99.90
20481;DHT22;10399;50.754;3.366;2023-03-31T08:39:59;13.10;99.90
20481;DHT22;10399;50.754;3.366;2023-03-31T08:42:40;13.10;99.90
20481;DHT22;10399;50.754;3.366;2023-03-31T08:45:22;13.10;99.90
20481;DHT22;10399;50.754;3.366;2023-03-31T08:47:54;13.10;99.90
20481;DHT22;10399;50.754;3.366;2023-03-31T08:50:27;13.00;99.90
20481;DHT22;10399;50.754;3.366;2023-03-31T08:53:06;13.10;99.90
20481;DHT22;10399;50.754;3.366;2023-03-31T08:55:43;13.10;99.90
20481;DHT22;10399;50.754;3.366;2023-03-31T08:58:41;13.10;99.90
20481;DHT22;10399;50.754;3.366;2023-03-31T09:15:04;13.00;99.90
20481;DHT22;10399;50.754;3.366;2023-03-31T09:17:40;12.90;99.90
20481;DHT22;10399;50.754;3.366;2023-03-31T09:20:18;12.90;99.90
20481;DHT22;10399;50.754;3.366;2023-03-31T09:23:16;12.90;99.90
20481;DHT22;10399;50.754;3.366;2023-03-31T09:25:45;12.90;99.90
20481;DHT22;10399;50.754;3.366;2023-03-31T09:28:36;12.80;99.90
20481;DHT22;10399;50.754;3.366;2023-03-31T09:31:12;12.80;99.90
20481;DHT22;10399;50.754;3.366;2023-03-31T09:33:43;12.80;99.90
20481;DHT22;10399;50.754;3.366;2023-03-31T09:36:16;12.90;99.90
20481;DHT22;10399;50.754;3.366;2023-03-31T09:38:45;12.90;99.90
20481;DHT22;10399;50.754;3.366;2023-03-31T09:41:13;12.90;99.90
20481;DHT22;10399;50.754;3.366;2023-03-31T09:43:42;13.00;99.90
20481;DHT22;10399;50.754;3.366;2023-03-31T09:46:32;12.90;99.90
20481;DHT22;10399;50.754;3.366;2023-03-31T09:49:05;12.90;99.90
20481;DHT22;10399;50.754;3.366;2023-03-31T09:51:34;12.90;99.90
20481;DHT22;10399;50.754;3.366;2023-03-31T09:59:20;12.90;99.90
20481;DHT22;10399;50.754;3.366;2023-03-31T10:01:52;13.00;99.90
20481;DHT22;10399;50.754;3.366;2023-03-31T10:04:24;13.00;99.90
20481;DHT22;10399;50.754;3.366;2023-03-31T10:06:52;13.00;99.90
20481;DHT22;10399;50.754;3.366;2023-03-31T10:09:24;13.00;99.90
20481;DHT22;10399;50.754;3.366;2023-03-31T10:12:15;13.10;99.90
20481;DHT22;10399;50.754;3.366;2023-03-31T10:14:46;12.90;99.90
20481;DHT22;10399;50.754;3.366;2023-03-31T10:17:22;13.00;99.90
20481;DHT22;10399;50.754;3.366;2023-03-31T10:19:55;13.00;99.90
20481;DHT22;10399;50.754;3.366;2023-03-31T10:22:29;12.90;99.90
20481;DHT22;10399;50.754;3.366;2023-03-31T10:25:19;12.80;99.90
20481;DHT22;10399;50.754;3.366;2023-03-31T10:27:50;12.80;99.90
20481;DHT22;10399;50.754;3.366;2023-03-31T10:30:27;12.90;99.90
20481;DHT22;10399;50.754;3.366;2023-03-31T10:32:57;12.80;99.90
20481;DHT22;10399;50.754;3.366;2023-03-31T10:35:30;12.90;99.90
20481;DHT22;10399;50.754;3.366;2023-03-31T10:38:13;13.00;99.90
20481;DHT22;10399;50.754;3.366;2023-03-31T10:40:52;12.90;99.90
20481;DHT22;10399;50.754;3.366;2023-03-31T10:43:42;12.90;99.90
20481;DHT22;10399;50.754;3.366;2023-03-31T10:46:13;12.90;99.90
20481;DHT22;10399;50.754;3.366;2023-03-31T10:48:41;13.00;99.90
20481;DHT22;10399;50.754;3.366;2023-03-31T10:51:15;13.00;99.90
20481;DHT22;10399;50.754;3.366;2023-03-31T10:53:46;12.90;99.90
20481;DHT22;10399;50.754;3.366;2023-03-31T10:56:24;12.90;99.90
20481;DHT22;10399;50.754;3.366;2023-03-31T11:13:31;13.00;99.90
20481;DHT22;10399;50.754;3.366;2023-03-31T11:42:56;12.60;99.90
20481;DHT22;10399;50.754;3.366;2023-03-31T11:45:45;12.50;99.90
20481;DHT22;10399;50.754;3.366;2023-03-31T11:48:35;12.50;99.90
20481;DHT22;10399;50.754;3.366;2023-03-31T11:51:08;12.50;99.90
20481;DHT22;10399;50.754;3.366;2023-03-31T11:53:38;12.50;99.90
20481;DHT22;10399;50.754;3.366;2023-03-31T11:56:09;12.50;99.90
20481;DHT22;10399;50.754;3.366;2023-03-31T11:58:44;12.40;99.90
20481;DHT22;10399;50.754;3.366;2023-03-31T12:01:45;12.40;99.90
20481;DHT22;10399;50.754;3.366;2023-03-31T12:07:01;12.30;99.90
20481;DHT22;10399;50.754;3.366;2023-03-31T12:09:54;12.40;99.90
20481;DHT22;10399;50.754;3.366;2023-03-31T12:12:34;12.10;99.90
20481;DHT22;10399;50.754;3.366;2023-03-31T12:15:36;11.90;99.90
20481;DHT22;10399;50.754;3.366;2023-03-31T12:18:21;11.90;99.90
20481;DHT22;10399;50.754;3.366;2023-03-31T12:20:55;11.80;99.90
20481;DHT22;10399;50.754;3.366;2023-03-31T12:23:29;11.80;99.90
20481;DHT22;10399;50.754;3.366;2023-03-31T12:28:38;12.10;99.90
20481;DHT22;10399;50.754;3.366;2023-03-31T12:31:12;12.20;99.90
20481;DHT22;10399;50.754;3.366;2023-03-31T12:33:44;12.20;99.90
20481;DHT22;10399;50.754;3.366;2023-03-31T12:46:55;12.30;99.90
20481;DHT22;10399;50.754;3.366;2023-03-31T12:52:11;12.40;99.90
20481;DHT22;10399;50.754;3.366;2023-03-31T12:57:23;12.20;99.90
20481;DHT22;10399;50.754;3.366;2023-03-31T13:00:19;12.30;99.90
20481;DHT22;10399;50.754;3.366;2023-03-31T13:02:47;12.30;99.90
20481;DHT22;10399;50.754;3.366;2023-03-31T13:08:04;12.20;99.90
20481;DHT22;10399;50.754;3.366;2023-03-31T13:10:33;12.10;99.90
20481;DHT22;10399;50.754;3.366;2023-03-31T13:13:16;12.00;99.90
20481;DHT22;10399;50.754;3.366;2023-03-31T13:15:52;11.90;99.90
20481;DHT22;10399;50.754;3.366;2023-03-31T13:18:20;11.80;99.90
20481;DHT22;10399;50.754;3.366;2023-03-31T13:20:59;11.80;99.90
20481;DHT22;10399;50.754;3.366;2023-03-31T13:23:34;11.70;99.90
20481;DHT22;10399;50.754;3.366;2023-03-31T13:26:23;11.70;99.90
20481;DHT22;10399;50.754;3.366;2023-03-31T13:34:31;11.80;99.90
20481;DHT22;10399;50.754;3.366;2023-03-31T13:42:52;11.60;99.90
20481;DHT22;10399;50.754;3.366;2023-03-31T13:59:27;11.70;99.90
20481;DHT22;10399;50.754;3.366;2023-03-31T14:04:49;11.80;99.90
20481;DHT22;10399;50.754;3.366;2023-03-31T14:07:55;11.70;99.90
20481;DHT22;10399;50.754;3.366;2023-03-31T14:10:34;11.60;99.90
20481;DHT22;10399;50.754;3.366;2023-03-31T14:13:17;11.60;99.90
20481;DHT22;10399;50.754;3.366;2023-03-31T14:15:53;11.60;99.90
20481;DHT22;10399;50.754;3.366;2023-03-31T14:18:25;11.60;99.90
20481;DHT22;10399;50.754;3.366;2023-03-31T14:21:20;11.50;99.90
20481;DHT22;10399;50.754;3.366;2023-03-31T14:23:55;11.60;99.90
20481;DHT22;10399;50.754;3.366;2023-03-31T14:26:35;11.60;99.90
20481;DHT22;10399;50.754;3.366;2023-03-31T14:35:23;11.60;99.90
20481;DHT22;10399;50.754;3.366;2023-03-31T14:37:54;11.60;99.90
20481;DHT22;10399;50.754;3.366;2023-03-31T14:40:22;11.70;99.90
20481;DHT22;10399;50.754;3.366;2023-03-31T14:42:49;11.70;99.90
20481;DHT22;10399;50.754;3.366;2023-03-31T14:45:24;11.70;99.90
20481;DHT22;10399;50.754;3.366;2023-03-31T14:50:34;11.80;99.90
20481;DHT22;10399;50.754;3.366;2023-03-31T14:53:02;11.90;99.90
20481;DHT22;10399;50.754;3.366;2023-03-31T14:55:32;12.00;99.90
20481;DHT22;10399;50.754;3.366;2023-03-31T14:58:31;12.00;99.90
20481;DHT22;10399;50.754;3.366;2023-03-31T15:01:03;12.00;99.90
20481;DHT22;10399;50.754;3.366;2023-03-31T15:03:38;12.00;99.90
20481;DHT22;10399;50.754;3.366;2023-03-31T15:06:07;12.10;99.90
20481;DHT22;10399;50.754;3.366;2023-03-31T15:08:35;12.10;99.90
20481;DHT22;10399;50.754;3.366;2023-03-31T15:11:07;12.10;99.90
20481;DHT22;10399;50.754;3.366;2023-03-31T15:13:44;12.20;99.90
20481;DHT22;10399;50.754;3.366;2023-03-31T15:16:41;12.20;99.90
20481;DHT22;10399;50.754;3.366;2023-03-31T15:19:23;12.20;99.90
20481;DHT22;10399;50.754;3.366;2023-03-31T15:21:56;12.20;99.90
20481;DHT22;10399;50.754;3.366;2023-03-31T15:24:28;12.20;99.90
20481;DHT22;10399;50.754;3.366;2023-03-31T15:27:06;12.20;99.90
20481;DHT22;10399;50.754;3.366;2023-03-31T15:29:41;12.20;99.90
20481;DHT22;10399;50.754;3.366;2023-03-31T15:32:15;12.20;99.90
20481;DHT22;10399;50.754;3.366;2023-03-31T15:34:44;12.20;99.90
20481;DHT22;10399;50.754;3.366;2023-03-31T15:37:12;12.30;99.90
20481;DHT22;10399;50.754;3.366;2023-03-31T15:39:44;12.30;99.90
20481;DHT22;10399;50.754;3.366;2023-03-31T15:42:13;12.40;99.90
20481;DHT22;10399;50.754;3.366;2023-03-31T15:44:45;12.40;99.90
20481;DHT22;10399;50.754;3.366;2023-03-31T15:47:19;12.20;99.90
20481;DHT22;10399;50.754;3.366;2023-03-31T15:50:02;12.20;99.90
20481;DHT22;10399;50.754;3.366;2023-03-31T15:52:35;12.00;99.90
20481;DHT22;10399;50.754;3.366;2023-03-31T15:55:23;12.00;99.90
20481;DHT22;10399;50.754;3.366;2023-03-31T15:57:52;11.90;99.90
20481;DHT22;10399;50.754;3.366;2023-03-31T16:01:02;12.00;99.90
20481;DHT22;10399;50.754;3.366;2023-03-31T16:03:33;11.80;99.90
20481;DHT22;10399;50.754;3.366;2023-03-31T16:06:31;11.80;99.90
20481;DHT22;10399;50.754;3.366;2023-03-31T16:09:09;11.70;99.90
20481;DHT22;10399;50.754;3.366;2023-03-31T16:14:12;11.70;99.90
20481;DHT22;10399;50.754;3.366;2023-03-31T16:16:59;11.70;99.90
20481;DHT22;10399;50.754;3.366;2023-03-31T16:19:31;11.70;99.90
20481;DHT22;10399;50.754;3.366;2023-03-31T16:22:05;11.60;99.90
20481;DHT22;10399;50.754;3.366;2023-03-31T16:24:33;11.70;99.90
20481;DHT22;10399;50.754;3.366;2023-03-31T16:27:03;11.70;99.90
20481;DHT22;10399;50.754;3.366;2023-03-31T16:29:36;11.70;99.90
20481;DHT22;10399;50.754;3.366;2023-03-31T16:32:12;11.70;99.90
20481;DHT22;10399;50.754;3.366;2023-03-31T16:34:57;11.70;99.90
20481;DHT22;10399;50.754;3.366;2023-03-31T16:37:25;11.70;99.90
20481;DHT22;10399;50.754;3.366;2023-03-31T16:39:53;11.80;99.90
20481;DHT22;10399;50.754;3.366;2023-03-31T16:42:20;11.90;99.90
20481;DHT22;10399;50.754;3.366;2023-03-31T16:44:47;11.90;99.90
20481;DHT22;10399;50.754;3.366;2023-03-31T16:47:36;11.90;99.90
20481;DHT22;10399;50.754;3.366;2023-03-31T16:50:04;11.90;99.90
20481;DHT22;10399;50.754;3.366;2023-03-31T16:52:33;11.90;99.90
20481;DHT22;10399;50.754;3.366;2023-03-31T16:55:01;11.90;99.90
20481;DHT22;10399;50.754;3.366;2023-03-31T16:57:28;11.90;99.90
20481;DHT22;10399;50.754;3.366;2023-03-31T16:59:56;11.90;99.90
20481;DHT22;10399;50.754;3.366;2023-03-31T17:02:43;11.80;99.90
20481;DHT22;10399;50.754;3.366;2023-03-31T17:05:10;11.80;99.90
20481;DHT22;10399;50.754;3.366;2023-03-31T17:07:39;11.80;99.90
20481;DHT22;10399;50.754;3.366;2023-03-31T17:10:07;11.80;99.90
20481;DHT22;10399;50.754;3.366;2023-03-31T17:12:34;11.70;99.90
20481;DHT22;10399;50.754;3.366;2023-03-31T17:15:01;11.70;99.90
20481;DHT22;10399;50.754;3.366;2023-03-31T17:17:28;11.60;99.90
20481;DHT22;10399;50.754;3.366;2023-03-31T17:19:56;11.60;99.90
20481;DHT22;10399;50.754;3.366;2023-03-31T17:22:25;11.80;99.90
20481;DHT22;10399;50.754;3.366;2023-03-31T17:24:52;11.70;99.90
20481;DHT22;10399;50.754;3.366;2023-03-31T17:27:25;11.70;99.90
20481;DHT22;10399;50.754;3.366;2023-03-31T17:29:53;11.70;99.90
20481;DHT22;10399;50.754;3.366;2023-03-31T17:32:21;11.70;99.90
20481;DHT22;10399;50.754;3.366;2023-03-31T17:34:48;11.70;99.90
20481;DHT22;10399;50.754;3.366;2023-03-31T17:37:19;11.70;99.90
20481;DHT22;10399;50.754;3.366;2023-03-31T17:39:46;11.60;99.90
20481;DHT22;10399;50.754;3.366;2023-03-31T17:42:13;11.60;99.90
20481;DHT22;10399;50.754;3.366;2023-03-31T17:44:41;11.60;99.90
20481;DHT22;10399;50.754;3.366;2023-03-31T17:47:09;11.60;99.90
20481;DHT22;10399;50.754;3.366;2023-03-31T17:49:36;11.60;99.90
20481;DHT22;10399;50.754;3.366;2023-03-31T17:52:04;11.60;99.90
20481;DHT22;10399;50.754;3.366;2023-03-31T17:54:31;11.60;99.90
20481;DHT22;10399;50.754;3.366;2023-03-31T17:56:58;11.60;99.90
20481;DHT22;10399;50.754;3.366;2023-03-31T17:59:25;11.60;99.90
20481;DHT22;10399;50.754;3.366;2023-03-31T18:01:52;11.70;99.90
20481;DHT22;10399;50.754;3.366;2023-03-31T18:04:20;11.70;99.90
20481;DHT22;10399;50.754;3.366;2023-03-31T18:06:48;11.70;99.90
20481;DHT22;10399;50.754;3.366;2023-03-31T18:09:16;11.60;99.90
20481;DHT22;10399;50.754;3.366;2023-03-31T18:11:43;11.60;99.90
20481;DHT22;10399;50.754;3.366;2023-03-31T18:14:12;11.60;99.90
20481;DHT22;10399;50.754;3.366;2023-03-31T18:16:40;11.60;99.90
20481;DHT22;10399;50.754;3.366;2023-03-31T18:19:07;11.50;99.90
20481;DHT22;10399;50.754;3.366;2023-03-31T18:21:34;11.50;99.90
20481;DHT22;10399;50.754;3.366;2023-03-31T18:24:02;11.50;99.90
20481;DHT22;10399;50.754;3.366;2023-03-31T18:26:29;11.50;99.90
20481;DHT22;10399;50.754;3.366;2023-03-31T18:28:57;11.40;99.90
20481;DHT22;10399;50.754;3.366;2023-03-31T18:31:24;11.40;99.90
20481;DHT22;10399;50.754;3.366;2023-03-31T18:33:53;11.30;99.90
20481;DHT22;10399;50.754;3.366;2023-03-31T18:36:22;11.40;99.90
20481;DHT22;10399;50.754;3.366;2023-03-31T18:38:49;11.40;99.90
20481;DHT22;10399;50.754;3.366;2023-03-31T18:41:17;11.30;99.90
20481;DHT22;10399;50.754;3.366;2023-03-31T18:43:45;11.30;99.90
20481;DHT22;10399;50.754;3.366;2023-03-31T18:46:13;11.30;99.90
20481;DHT22;10399;50.754;3.366;2023-03-31T18:48:40;11.30;99.90
20481;DHT22;10399;50.754;3.366;2023-03-31T18:51:07;11.30;99.90
20481;DHT22;10399;50.754;3.366;2023-03-31T18:53:35;11.30;99.90
20481;DHT22;10399;50.754;3.366;2023-03-31T18:56:03;11.30;99.90